Terminal Aerodrome Forecast
Issued by NWS Melbourne, FL

Home | Current Version | Previous Version | Text Only | Print | Product List | Glossary On
Versions: 1 2 3 4 5 6 7 8 9 10 11 12 13 14 15 16 17 18 19 20 21 22 23 24
000
FTUS42 KMLB 012100 AAA
TAFMCO
TAF AMD
KMCO 012100Z 0121/0218 15011KT P6SM SCT060 SCT300
     FM020000 17007KT P6SM FEW040 BKN200
     FM020600 18007KT P6SM SCT020 BKN120 WS015/20032KT
     FM021200 20012G19KT P6SM VCSH SCT025 BKN040=

USA.gov is the U.S. government's official web portal to all federal, state and local government web resources and services.